Latest Weather Observations for Cape Bruny AWS

IDT60901

Issued at 5:11 pm EST Wednesday 29 June 2016 (issued every 10 minutes, with the page automatically refreshed every 10 minutes)

About weather observations | Map of Hobart area stations | Latest observations for Hobart area | Other Formats
Station Details ID: 094198 Name: CAPE BRUNY (CAPE BRUNY) Lat: -43.49 Lon: 147.14 Height: 59.7 m
Data from the previous 72 hours. | See also: Recent months at Cape Bruny AWS
Date/Time
EST
Temp
°C
App
Temp
°C
Dew
Point
°C
Rel
Hum
%
Delta-T
°C
Wind Press
QNH
hPa
Press
MSL
hPa
Rain since
9am
mm
Dir  Spd
km/h
Gust
km/h
Spd
kts
Gust
kts
29/05:00pm 10.3 7.3 7.5 83 1.3 N 13 17 7 9 1016.3 1016.4 0.0
29/04:30pm 11.3 8.9 8.5 83 1.4 NE 11 17 6 9 1016.4 1016.5 0.0
29/04:00pm 11.7 9.3 8.7 82 1.5 NNW 11 17 6 9 1016.6 1016.7 0.0
29/03:30pm 12.5 10.1 8.8 78 1.9 NNW 11 17 6 9 1016.9 1017.0 0.0
29/03:00pm 12.1 7.6 8.4 78 1.8 NW 22 32 12 17 1016.8 1016.9 0.0
29/02:30pm 11.8 8.2 8.5 80 1.6 NNW 17 20 9 11 1016.9 1017.0 0.0
29/02:00pm 12.7 9.5 8.6 76 2.0 NNW 15 20 8 11 1016.7 1016.8 0.0
29/01:30pm 13.1 10.3 8.4 73 2.3 NNW 13 22 7 12 1017.1 1017.2 0.0
29/01:00pm 12.5 8.5 8.2 75 2.1 NW 19 28 10 15 1017.4 1017.5 0.0
29/12:30pm 13.3 10.5 8.4 72 2.4 NNW 13 24 7 13 1017.8 1017.9 0.0
29/12:00pm 12.8 10.0 8.7 76 2.1 NNE 13 19 7 10 1018.1 1018.2 0.0
29/11:30am 12.5 10.1 8.6 77 1.9 N 11 17 6 9 1018.3 1018.4 0.0
29/11:00am 12.1 9.6 8.4 78 1.8 N 11 17 6 9 1018.8 1018.9 0.0
29/10:30am 11.5 9.5 8.5 82 1.5 NNW 9 11 5 6 1019.0 1019.1 0.0
29/10:00am 11.1 8.3 8.5 84 1.3 N 13 17 7 9 1018.8 1018.9 0.0
29/09:30am 10.5 8.0 8.3 86 1.1 NNE 11 15 6 8 1018.8 1018.9 0.0
29/09:00am 10.4 7.4 7.8 84 1.3 NNE 13 15 7 8 1018.7 1018.8 5.6
29/08:30am 10.7 9.5 7.9 83 1.4 S 4 11 2 6 1018.4 1018.5 5.6
29/08:00am 10.8 8.5 7.5 80 1.6 NNW 9 13 5 7 1018.0 1018.1 5.6
29/07:30am 11.1 8.4 7.4 78 1.8 NW 11 15 6 8 1017.7 1017.8 5.6
29/07:00am 11.0 7.6 7.7 80 1.6 NW 15 20 8 11 1017.3 1017.4 5.6
29/06:30am 11.1 8.1 7.6 79 1.7 WNW 13 20 7 11 1017.0 1017.1 5.6
29/06:00am 11.2 6.8 7.3 77 1.9 NW 20 28 11 15 1016.6 1016.7 5.6
29/05:30am 11.0 5.3 6.9 76 2.0 NW 26 33 14 18 1016.2 1016.3 5.6
29/05:00am 10.4 5.9 6.9 79 1.7 NW 20 28 11 15 1015.8 1015.9 5.6
29/04:30am 10.4 6.1 6.9 79 1.7 NW 19 26 10 14 1015.5 1015.6 5.6
29/04:00am 10.5 4.5 7.0 79 1.7 NW 28 39 15 21 1015.3 1015.4 5.6
29/03:30am 10.6 5.0 7.3 80 1.6 NW 26 35 14 19 1014.8 1014.9 5.6
29/03:00am 10.2 5.8 7.6 84 1.2 NNW 20 24 11 13 1014.8 1014.9 5.6
29/02:30am 10.3 6.0 7.7 84 1.3 W 20 30 11 16 1015.0 1015.1 5.6
29/02:00am 10.0 3.2 7.9 87 1.0 W 33 41 18 22 1014.6 1014.7 5.2
29/01:30am 9.8 1.2 8.1 89 0.8 W 43 56 23 30 1014.4 1014.5 4.4
29/01:01am 9.8 0.6 8.2 90 0.8 W 46 65 25 35 1014.2 1014.3 2.6
29/01:00am 9.7 0.1 8.0 89 0.8 W 48 65 26 35 1014.1 1014.2 2.6
29/12:36am 9.9 1.2 7.8 87 1.0 WSW 43 63 23 34 1014.0 1014.1 1.0
29/12:30am 10.1 1.8 7.9 86 1.1 WSW 41 56 22 30 1014.1 1014.2 0.8
29/12:21am 11.1 2.7 7.4 78 1.8 W 41 46 22 25 1014.0 1014.1 0.6
29/12:00am 12.6 2.7 8.1 74 2.2 WNW 50 65 27 35 1012.8 1012.9 0.4
 
Date/Time
EST
Temp
°C
App
Temp
°C
Dew
Point
°C
Rel
Hum
%
Delta-T
°C
Wind Press
QNH
hPa
Press
MSL
hPa
Rain since
9am
mm
Dir  Spd
km/h
Gust
km/h
Spd
kts
Gust
kts
28/11:50pm 13.2 4.5 7.6 69 2.8 WNW 43 72 23 39 1012.9 1013.0 0.4
28/11:33pm 13.1 7.2 7.5 69 2.7 WNW 28 50 15 27 1013.1 1013.2 0.4
28/11:30pm 12.7 8.0 7.8 72 2.4 WNW 22 41 12 22 1013.1 1013.2 0.4
28/11:00pm 11.1 7.4 7.8 80 1.6 N 17 35 9 19 1013.3 1013.4 0.4
28/10:30pm 12.2 7.5 7.7 74 2.2 NNW 22 33 12 18 1013.2 1013.3 0.4
28/10:00pm 11.8 7.6 8.1 78 1.8 NNE 20 32 11 17 1013.4 1013.5 0.4
28/09:30pm 12.0 7.9 7.9 76 2.0 NNE 19 30 10 16 1013.6 1013.7 0.4
28/09:00pm 12.2 8.4 7.7 74 2.2 N 17 26 9 14 1013.0 1013.1 0.4
28/08:30pm 12.3 8.1 7.6 73 2.3 NNW 19 37 10 20 1013.3 1013.4 0.4
28/08:00pm 12.0 7.0 7.9 76 2.0 NW 24 48 13 26 1013.4 1013.5 0.4
28/07:52pm 13.1 6.8 7.3 68 2.8 NW 30 48 16 26 1013.1 1013.2 0.4
28/07:30pm 12.6 7.4 7.3 70 2.6 NW 24 32 13 17 1013.0 1013.1 0.4
28/07:00pm 12.4 7.0 7.9 74 2.2 NW 26 43 14 23 1013.0 1013.1 0.4
28/06:30pm 12.3 8.2 7.8 74 2.2 NNW 19 32 10 17 1013.1 1013.2 0.4
28/06:00pm 12.6 8.2 7.5 71 2.5 NW 20 28 11 15 1012.7 1012.8 0.4
28/05:30pm 12.5 6.6 7.6 72 2.4 NW 28 35 15 19 1012.5 1012.6 0.4
28/05:00pm 12.6 7.1 7.5 71 2.5 NW 26 37 14 20 1012.4 1012.5 0.4
28/04:30pm 12.7 5.5 7.8 72 2.4 WNW 35 44 19 24 1012.2 1012.3 0.4
28/04:14pm 13.2 7.2 7.2 67 2.9 NW 28 48 15 26 1012.2 1012.3 0.4
28/04:00pm 12.9 7.7 7.4 69 2.7 WNW 24 33 13 18 1012.3 1012.4 0.4
28/03:30pm 13.2 8.1 7.6 69 2.8 WNW 24 35 13 19 1012.1 1012.2 0.4
28/03:00pm 13.2 7.1 8.1 71 2.5 WNW 30 39 16 21 1012.1 1012.2 0.4
28/02:30pm 12.9 5.9 8.6 75 2.2 WNW 35 43 19 23 1011.9 1012.0 0.4
28/02:00pm 13.3 6.7 8.4 72 2.5 WNW 33 54 18 29 1011.6 1011.7 0.4
28/01:54pm 12.8 5.8 8.5 75 2.1 WNW 35 54 19 29 1011.9 1012.0 0.4
28/01:30pm 12.7 7.2 9.3 80 1.7 WNW 28 41 15 22 1011.6 1011.7 0.4
28/01:00pm 12.5 8.6 9.3 81 1.6 NNW 20 32 11 17 1011.5 1011.6 0.4
28/12:30pm 12.8 9.5 9.6 81 1.6 NNW 17 24 9 13 1011.8 1011.9 0.4
28/12:00pm 12.3 8.8 10.2 87 1.1 NNW 19 30 10 16 1012.0 1012.1 0.4
28/11:30am 12.6 8.7 9.6 82 1.5 NNW 20 30 11 16 1011.9 1012.0 0.2
28/11:00am 12.6 10.3 10.5 87 1.1 N 13 20 7 11 1011.9 1012.0 0.2
28/10:30am 11.8 7.6 9.7 87 1.1 NNW 22 32 12 17 1012.0 1012.1 0.2
28/10:00am 12.0 7.4 9.6 85 1.2 NNW 24 32 13 17 1011.6 1011.7 0.0
28/09:30am 11.7 6.9 8.9 83 1.4 NW 24 32 13 17 1011.7 1011.8 0.0
28/09:00am 11.9 5.3 8.7 81 1.6 NW 33 56 18 30 1011.1 1011.2 1.2
28/08:54am 12.1 6.1 8.8 80 1.6 NNW 30 56 16 30 1010.8 1010.9 1.2
28/08:30am 11.3 5.7 8.9 85 1.2 NW 28 37 15 20 1011.0 1011.1 0.8
28/08:00am 11.5 5.4 8.4 81 1.5 NW 30 43 16 23 1010.4 1010.5 0.8
28/07:30am 11.0 6.5 8.4 84 1.3 NNW 22 37 12 20 1010.1 1010.2 0.8
28/07:00am 11.2 5.6 8.6 84 1.3 NW 28 37 15 20 1010.1 1010.2 0.6
28/06:30am 10.5 6.0 8.4 87 1.0 NNW 22 32 12 17 1009.8 1009.9 0.4
28/06:00am 10.7 5.7 7.9 83 1.4 NNW 24 32 13 17 1009.5 1009.6 0.4
28/05:30am 10.7 5.8 8.3 85 1.2 NNW 24 33 13 18 1009.3 1009.4 0.2
28/05:00am 11.0 5.6 8.2 83 1.4 NW 26 35 14 19 1008.9 1009.0 0.2
28/04:58am 11.2 5.8 8.2 82 1.5 NW 26 35 14 19 1009.0 1009.1 0.2
28/04:30am 10.0 7.2 6.9 81 1.5 N 11 15 6 8 1009.2 1009.3 0.2
28/04:00am 11.1 6.9 7.4 78 1.8 NNW 19 28 10 15 1009.3 1009.4 0.2
28/03:30am 11.7 4.9 7.0 73 2.3 NW 32 41 17 22 1008.9 1009.0 0.2
28/03:00am 10.7 5.3 6.5 75 2.0 NNW 24 32 13 17 1008.8 1008.9 0.2
28/02:30am 10.2 5.5 6.0 75 1.9 NNW 20 32 11 17 1008.8 1008.9 0.2
28/02:00am 10.8 5.4 6.2 73 2.2 NNW 24 35 13 19 1009.1 1009.2 0.2
28/01:30am 11.2 4.6 6.1 71 2.4 NW 30 39 16 21 1008.9 1009.0 0.2
28/01:00am 10.9 4.6 5.9 71 2.3 NW 28 39 15 21 1008.7 1008.8 0.2
28/12:30am 10.8 4.8 5.3 69 2.5 NW 26 33 14 18 1009.1 1009.2 0.2
28/12:00am 10.6 5.3 5.2 69 2.5 NW 22 32 12 17 1009.2 1009.3 0.2
 
Date/Time
EST
Temp
°C
App
Temp
°C
Dew
Point
°C
Rel
Hum
%
Delta-T
°C
Wind Press
QNH
hPa
Press
MSL
hPa
Rain since
9am
mm
Dir  Spd
km/h
Gust
km/h
Spd
kts
Gust
kts
27/11:30pm 10.5 5.8 5.1 69 2.5 NW 19 30 10 16 1009.5 1009.6 0.2
27/11:00pm 10.1 5.7 4.7 69 2.4 NNW 17 22 9 12 1009.4 1009.5 0.2
27/10:30pm 9.9 5.4 4.1 67 2.6 N 17 24 9 13 1009.8 1009.9 0.2
27/10:00pm 9.4 4.8 3.8 68 2.5 N 17 24 9 13 1009.6 1009.7 0.2
27/09:30pm 10.3 4.0 4.0 65 2.8 NW 26 41 14 22 1009.8 1009.9 0.2
27/09:26pm 10.2 4.3 4.1 66 2.7 NW 24 41 13 22 1009.9 1010.0 0.2
27/09:00pm 8.6 4.7 3.4 70 2.2 N 13 20 7 11 1010.0 1010.1 0.2
27/08:30pm 8.9 4.7 3.9 71 2.2 N 15 20 8 11 1009.9 1010.0 0.2
27/08:00pm 9.5 4.9 3.7 67 2.5 N 17 24 9 13 1010.4 1010.5 0.2
27/07:30pm 9.2 4.5 3.2 66 2.6 NNW 17 26 9 14 1010.2 1010.3 0.2
27/07:00pm 9.6 4.4 3.6 66 2.6 NNW 20 33 11 18 1010.1 1010.2 0.2
27/06:30pm 8.6 4.0 3.6 71 2.2 NNE 17 26 9 14 1010.2 1010.3 0.2
27/06:00pm 7.9 3.5 2.6 69 2.2 N 15 26 8 14 1010.1 1010.2 0.2
27/05:30pm 9.0 3.9 3.2 67 2.5 NNW 19 28 10 15 1010.0 1010.1 0.2
27/05:00pm 10.0 4.7 3.1 62 3.0 WNW 20 30 11 16 1009.7 1009.8 0.2
27/04:30pm 10.0 4.9 3.3 63 2.9 WNW 19 35 10 19 1009.8 1009.9 0.2
27/04:00pm 10.9 5.5 4.4 64 2.9 WNW 22 30 12 16 1009.6 1009.7 0.2
27/03:30pm 10.8 0.7 4.0 63 3.0 W 46 56 25 30 1009.1 1009.2 0.2
27/03:11pm 11.6 3.5 3.1 56 3.7 WNW 35 54 19 29 1009.1 1009.2 0.0
27/03:00pm 11.6 4.3 2.4 53 4.0 NW 30 39 16 21 1009.2 1009.3 0.0
27/02:30pm 11.9 4.5 3.9 58 3.6 WNW 32 44 17 24 1009.1 1009.2 0.0
27/02:00pm 11.8 3.9 2.0 51 4.2 WNW 33 54 18 29 1009.2 1009.3 0.0
27/01:30pm 11.7 3.1 2.5 53 4.0 WNW 37 67 20 36 1009.0 1009.1 0.0
27/01:27pm 11.8 3.9 2.5 53 4.0 WNW 33 54 18 29 1009.1 1009.2 0.0
27/01:00pm 12.0 4.4 3.0 54 4.0 W 32 48 17 26 1009.4 1009.5 0.0
27/12:30pm 11.7 5.8 3.7 58 3.6 WNW 24 30 13 16 1009.9 1010.0 0.0
27/12:00pm 11.4 3.9 4.2 61 3.2 WNW 33 44 18 24 1010.1 1010.2 0.0
27/11:30am 11.0 3.9 3.3 59 3.4 WNW 30 41 16 22 1010.4 1010.5 0.0
27/11:00am 11.0 4.3 3.5 60 3.3 WNW 28 43 15 23 1010.6 1010.7 0.0
27/10:30am 10.8 4.1 3.6 61 3.2 WNW 28 46 15 25 1010.6 1010.7 0.0
27/10:00am 9.9 4.5 4.7 70 2.3 NW 22 30 12 16 1010.7 1010.8 0.0
27/09:30am 10.1 4.7 4.3 67 2.6 NW 22 30 12 16 1010.7 1010.8 0.0
27/09:00am 9.5 3.6 4.1 69 2.4 NW 24 30 13 16 1010.5 1010.6 0.0
27/08:30am 9.2 3.8 4.4 72 2.1 NW 22 30 12 16 1010.3 1010.4 0.0
27/08:00am 9.1 4.1 4.5 73 2.0 NW 20 28 11 15 1010.2 1010.3 0.0
27/07:30am 8.8 3.8 4.4 74 1.9 WNW 20 28 11 15 1009.9 1010.0 0.0
27/07:00am 9.0 4.3 5.0 76 1.8 NW 19 24 10 13 1009.6 1009.7 0.0
27/06:30am 8.5 4.1 4.7 77 1.7 NW 17 22 9 12 1009.4 1009.5 0.0
27/06:00am 8.7 4.0 5.1 78 1.6 NW 19 24 10 13 1009.1 1009.2 0.0
27/05:30am 8.6 3.9 5.2 79 1.5 W 19 24 10 13 1008.9 1009.0 0.0
27/05:00am 8.9 4.1 5.5 79 1.5 W 20 28 11 15 1008.8 1008.9 0.0
27/04:30am 9.1 4.2 5.1 76 1.8 WNW 20 28 11 15 1008.6 1008.7 0.0
27/04:00am 9.0 3.8 5.4 78 1.6 WNW 22 32 12 17 1008.5 1008.6 0.0
27/03:30am 9.2 4.3 5.0 75 1.9 WNW 20 30 11 16 1008.6 1008.7 0.0
27/03:00am 9.0 2.9 5.0 76 1.8 NW 26 32 14 17 1008.3 1008.4 0.0
27/02:30am 8.4 3.8 5.7 83 1.2 NNW 19 24 10 13 1008.6 1008.7 0.0
27/02:00am 8.1 3.9 5.7 85 1.1 NNW 17 20 9 11 1008.4 1008.5 0.0
27/01:30am 9.0 4.4 6.3 83 1.2 NW 20 24 11 13 1008.3 1008.4 0.0
27/01:00am 9.5 3.2 5.5 76 1.8 W 28 35 15 19 1008.2 1008.3 0.0
27/12:30am 9.7 2.6 5.5 75 1.9 W 32 44 17 24 1008.1 1008.2 0.0
27/12:00am 10.4 3.7 5.6 72 2.2 WNW 30 39 16 21 1008.2 1008.3 0.0
 
Date/Time
EST
Temp
°C
App
Temp
°C
Dew
Point
°C
Rel
Hum
%
Delta-T
°C
Wind Press
QNH
hPa
Press
MSL
hPa
Rain since
9am
mm
Dir  Spd
km/h
Gust
km/h
Spd
kts
Gust
kts
26/11:30pm 10.3 4.6 4.9 69 2.4 WNW 24 32 13 17 1008.1 1008.2 0.0
26/11:00pm 10.7 5.4 5.0 68 2.6 NW 22 30 12 16 1008.0 1008.1 0.0
26/10:30pm 10.4 5.1 5.0 69 2.5 NNW 22 32 12 17 1007.7 1007.8 0.0
26/10:00pm 10.6 3.8 5.2 69 2.5 NW 30 39 16 21 1007.6 1007.7 0.0
26/09:30pm 9.9 5.0 5.3 73 2.1 NNW 20 32 11 17 1007.7 1007.8 0.0
26/09:00pm 10.2 5.9 5.2 71 2.3 NNW 17 26 9 14 1008.0 1008.1 0.0
26/08:30pm 10.1 7.3 5.3 72 2.2 N 9 17 5 9 1008.4 1008.5 0.0
26/08:00pm 10.9 6.3 5.4 69 2.5 NW 19 28 10 15 1008.5 1008.6 0.0
26/07:30pm 10.4 7.3 5.4 71 2.3 NNW 11 15 6 8 1008.6 1008.7 0.0
26/07:00pm 10.8 6.8 4.9 67 2.7 NNW 15 28 8 15 1008.5 1008.6 0.0
26/06:30pm 11.5 6.2 4.9 64 3.0 NW 22 32 12 17 1008.5 1008.6 0.0
26/06:00pm 10.9 7.4 5.4 69 2.5 N 13 20 7 11 1008.6 1008.7 0.0
26/05:30pm 11.2 6.9 5.3 67 2.7 NNW 17 20 9 11 1009.0 1009.1 0.0

Latest Capital City Observations: Canberra | Sydney | Melbourne | Brisbane | Adelaide | Perth | Hobart | Darwin

Other Formats:

Comma delimited format used in spreadsheet applications
http://www.bom.gov.au/fwo/IDT60901/IDT60901.95967.axf

JavaScript Object Notation format (JSON) in row-major order
http://www.bom.gov.au/fwo/IDT60901/IDT60901.95967.json